createdAt,value
2023-06-06T00:02:31.866Z,1.77
2023-06-06T00:05:18.307Z,1.40
2023-06-06T00:08:04.029Z,1.47
2023-06-06T00:10:49.654Z,1.90
2023-06-06T00:13:36.141Z,1.80
2023-06-06T00:16:21.471Z,1.57
2023-06-06T00:19:07.650Z,1.40
2023-06-06T00:21:53.412Z,1.77
2023-06-06T00:24:39.008Z,1.30
2023-06-06T00:27:24.693Z,1.97
2023-06-06T00:30:10.421Z,1.80
2023-06-06T00:32:58.273Z,1.80
2023-06-06T00:35:44.003Z,1.33
2023-06-06T00:38:29.263Z,1.70
2023-06-06T00:41:15.511Z,1.50
2023-06-06T00:44:01.196Z,1.93
2023-06-06T00:46:46.456Z,1.57
2023-06-06T00:49:31.992Z,1.70
2023-06-06T00:52:21.139Z,1.70
2023-06-06T00:55:08.721Z,1.20
2023-06-06T00:57:56.418Z,1.53
2023-06-06T01:00:42.715Z,1.57
2023-06-06T01:03:31.328Z,1.90
2023-06-06T01:06:17.400Z,1.57
2023-06-06T01:09:06.642Z,1.67
2023-06-06T01:11:52.719Z,1.33
2023-06-06T01:14:48.056Z,1.87
2023-06-06T01:17:35.152Z,1.70
2023-06-06T01:20:23.616Z,1.80
2023-06-06T01:23:15.366Z,1.60
2023-06-06T01:26:06.906Z,1.20
2023-06-06T01:28:57.057Z,1.70
2023-06-06T01:31:47.241Z,1.50
2023-06-06T01:34:45.403Z,1.63
2023-06-06T01:37:58.727Z,1.87
2023-06-06T01:40:47.393Z,1.60
2023-06-06T01:43:34.633Z,1.73
2023-06-06T01:46:22.468Z,1.20
2023-06-06T01:49:09.329Z,1.77
2023-06-06T01:51:57.936Z,1.50
2023-06-06T01:54:44.499Z,1.63
2023-06-06T01:57:32.096Z,1.60
2023-06-06T02:00:18.619Z,1.60
2023-06-06T02:03:04.383Z,1.70
2023-06-06T02:05:52.535Z,1.57
2023-06-06T02:08:40.024Z,1.50
2023-06-06T02:11:28.072Z,2.07
2023-06-06T02:14:17.165Z,1.60
2023-06-06T02:17:06.318Z,1.30
2023-06-06T02:19:54.936Z,1.60
2023-06-06T02:22:40.485Z,1.90
2023-06-06T02:25:26.221Z,1.53
2023-06-06T02:28:12.483Z,1.97
2023-06-06T02:31:01.267Z,2.33
2023-06-06T02:33:49.142Z,1.60
2023-06-06T02:36:35.024Z,1.90
2023-06-06T02:39:23.098Z,1.60
2023-06-06T02:42:09.650Z,1.80
2023-06-06T02:44:55.120Z,1.57
2023-06-06T02:47:41.213Z,1.90
2023-06-06T02:50:29.606Z,1.97
2023-06-06T02:53:16.353Z,1.97
2023-06-06T02:56:02.783Z,1.63
2023-06-06T02:58:48.644Z,1.57
2023-06-06T03:01:35.014Z,2.03
2023-06-06T03:04:22.694Z,1.67
2023-06-06T03:07:11.276Z,1.90
2023-06-06T03:10:02.316Z,1.40
2023-06-06T03:12:48.051Z,1.77
2023-06-06T03:15:36.168Z,1.77
2023-06-06T03:18:22.204Z,1.93
2023-06-06T03:21:07.985Z,1.80
2023-06-06T03:23:54.698Z,1.47
2023-06-06T03:26:45.900Z,1.60
2023-06-06T03:29:31.334Z,1.50
2023-06-06T03:32:17.009Z,1.83
2023-06-06T03:35:07.487Z,1.83
2023-06-06T03:37:56.758Z,1.80
2023-06-06T03:40:44.551Z,1.60
2023-06-06T03:43:30.846Z,1.90
2023-06-06T03:46:18.968Z,1.60
2023-06-06T03:49:07.250Z,1.70
2023-06-06T03:51:52.766Z,1.43
2023-06-06T03:54:38.427Z,1.57
2023-06-06T03:57:24.380Z,1.70
2023-06-06T04:00:15.051Z,1.67
2023-06-06T04:03:01.541Z,1.90
2023-06-06T04:05:49.755Z,1.67
2023-06-06T04:08:36.356Z,1.63
2023-06-06T04:11:22.789Z,2.20
2023-06-06T04:14:11.911Z,1.80
2023-06-06T04:16:57.506Z,1.40
2023-06-06T04:19:43.590Z,1.97
2023-06-06T04:22:31.891Z,1.90
2023-06-06T04:25:20.007Z,2.20
2023-06-06T04:28:07.206Z,2.00
2023-06-06T04:30:56.291Z,1.67
2023-06-06T04:33:43.580Z,1.83
2023-06-06T04:36:29.265Z,2.40
2023-06-06T04:39:17.653Z,1.83
2023-06-06T04:42:06.223Z,2.10
2023-06-06T04:44:54.269Z,2.07
2023-06-06T04:47:41.909Z,2.00
2023-06-06T04:50:30.683Z,1.67
2023-06-06T04:53:20.245Z,1.93
2023-06-06T04:56:07.068Z,2.40
2023-06-06T04:58:53.765Z,1.77
2023-06-06T05:01:42.267Z,2.00
2023-06-06T05:04:30.793Z,1.90
2023-06-06T05:07:16.218Z,1.80
2023-06-06T05:10:01.764Z,1.90
2023-06-06T05:12:47.385Z,1.87
2023-06-06T05:15:32.992Z,2.00
2023-06-06T05:18:21.649Z,1.90
2023-06-06T05:21:07.808Z,2.00
2023-06-06T05:23:54.881Z,1.50
2023-06-06T05:26:41.227Z,1.30
2023-06-06T05:29:29.134Z,1.80
2023-06-06T05:32:18.022Z,1.87
2023-06-06T05:35:04.339Z,1.90
2023-06-06T05:37:50.832Z,1.60
2023-06-06T05:40:37.256Z,1.87
2023-06-06T05:43:26.225Z,1.87
2023-06-06T05:46:13.054Z,2.03
2023-06-06T05:48:58.483Z,1.50
2023-06-06T05:51:43.773Z,1.80
2023-06-06T05:54:41.595Z,1.30
2023-06-06T05:57:35.424Z,1.93
2023-06-06T06:00:21.585Z,2.13
2023-06-06T06:03:09.116Z,1.60
2023-06-06T06:05:55.770Z,1.60
2023-06-06T06:08:42.035Z,2.07
2023-06-06T06:11:28.407Z,2.10
2023-06-06T06:14:16.274Z,2.00
2023-06-06T06:17:01.611Z,2.03
2023-06-06T06:19:48.307Z,1.77
2023-06-06T06:22:33.827Z,1.50
2023-06-06T06:25:21.335Z,2.17
2023-06-06T06:28:18.182Z,2.40
2023-06-06T06:31:04.237Z,2.30
2023-06-06T06:33:49.878Z,2.00
2023-06-06T06:36:35.331Z,1.90
2023-06-06T06:39:20.920Z,1.70
2023-06-06T06:42:08.278Z,1.60
2023-06-06T06:44:54.415Z,1.70
2023-06-06T06:47:41.544Z,1.60
2023-06-06T06:50:27.360Z,2.00
2023-06-06T06:53:17.321Z,2.27
2023-06-06T06:56:06.106Z,3.00
2023-06-06T06:58:51.851Z,1.60
2023-06-06T07:01:40.703Z,1.97
2023-06-06T07:04:26.901Z,2.47
2023-06-06T07:07:18.002Z,1.80
2023-06-06T07:10:04.011Z,2.33
2023-06-06T07:12:51.638Z,1.93
2023-06-06T07:15:42.494Z,2.00
2023-06-06T07:18:28.059Z,2.13
2023-06-06T07:21:14.206Z,2.13
2023-06-06T07:23:59.703Z,2.57
2023-06-06T07:26:47.741Z,2.23
2023-06-06T07:29:33.828Z,2.10
2023-06-06T07:32:19.464Z,2.40
2023-06-06T07:35:05.592Z,2.20
2023-06-06T07:37:52.927Z,2.27
2023-06-06T07:40:38.701Z,1.97
2023-06-06T07:43:24.321Z,1.83
2023-06-06T07:46:14.526Z,2.00
2023-06-06T07:49:00.575Z,1.83
2023-06-06T07:51:49.793Z,2.07
2023-06-06T07:54:38.575Z,1.90
2023-06-06T07:57:26.946Z,1.93
2023-06-06T08:00:15.218Z,1.80
2023-06-06T08:03:00.990Z,2.30
2023-06-06T08:05:46.918Z,1.90
2023-06-06T08:08:33.170Z,2.00
2023-06-06T08:11:18.943Z,1.90
2023-06-06T08:14:04.653Z,2.50
2023-06-06T08:16:50.296Z,1.80
2023-06-06T08:19:36.437Z,1.43
2023-06-06T08:22:25.597Z,2.17
2023-06-06T08:25:11.285Z,2.00
2023-06-06T08:27:59.302Z,1.90
2023-06-06T08:30:47.173Z,3.00
2023-06-06T08:33:33.043Z,2.30
2023-06-06T08:36:18.707Z,2.23
2023-06-06T08:39:09.769Z,2.13
2023-06-06T08:41:56.821Z,2.33
2023-06-06T08:44:43.414Z,2.30
2023-06-06T08:47:32.900Z,2.20
2023-06-06T08:50:21.224Z,2.37
2023-06-06T08:53:07.897Z,3.10
2023-06-06T08:55:59.167Z,2.00
2023-06-06T08:58:47.771Z,2.20
2023-06-06T09:01:34.589Z,2.17
2023-06-06T09:04:21.688Z,2.40
2023-06-06T09:07:14.240Z,2.40
2023-06-06T09:10:00.073Z,2.20
2023-06-06T09:12:47.720Z,2.60
2023-06-06T09:15:33.580Z,2.30
2023-06-06T09:18:21.283Z,2.50
2023-06-06T09:21:07.527Z,2.30
2023-06-06T09:23:55.408Z,2.00
2023-06-06T09:26:40.851Z,2.57
2023-06-06T09:29:29.664Z,1.80
2023-06-06T09:32:15.551Z,2.30
2023-06-06T09:35:02.565Z,2.30
2023-06-06T09:37:48.778Z,2.23
2023-06-06T09:40:35.657Z,2.23
2023-06-06T09:43:26.009Z,2.20
2023-06-06T09:46:19.481Z,2.63
2023-06-06T09:49:04.898Z,1.97
2023-06-06T09:51:54.272Z,2.17
2023-06-06T09:54:44.688Z,2.30
2023-06-06T09:57:32.005Z,2.43
2023-06-06T10:00:19.150Z,2.53
2023-06-06T10:03:06.594Z,2.07
2023-06-06T10:05:53.418Z,2.10
2023-06-06T10:08:40.641Z,2.13
2023-06-06T10:11:27.720Z,2.00
2023-06-06T10:14:16.275Z,2.00
2023-06-06T10:17:02.255Z,2.20
2023-06-06T10:19:48.635Z,1.90
2023-06-06T10:22:36.112Z,2.50
2023-06-06T10:25:22.964Z,2.40
2023-06-06T10:28:14.741Z,2.60
2023-06-06T10:31:06.443Z,1.77
2023-06-06T10:33:58.887Z,2.23
2023-06-06T10:36:46.820Z,1.80
2023-06-06T10:39:32.438Z,2.17
2023-06-06T10:42:20.596Z,2.10
2023-06-06T10:45:10.344Z,1.80
2023-06-06T10:48:02.772Z,1.93
2023-06-06T10:50:57.849Z,2.40
2023-06-06T10:53:44.361Z,1.60
2023-06-06T10:56:33.636Z,2.20
2023-06-06T10:59:29.437Z,1.93
2023-06-06T11:02:34.408Z,1.70
2023-06-06T11:05:22.679Z,2.10
2023-06-06T11:08:08.994Z,2.00
2023-06-06T11:11:14.548Z,2.10
2023-06-06T11:14:05.833Z,2.10
2023-06-06T11:17:00.297Z,2.40
2023-06-06T11:19:47.145Z,1.83
2023-06-06T11:25:25.095Z,1.87
2023-06-06T11:28:22.811Z,1.97
2023-06-06T11:31:09.016Z,2.23
2023-06-06T11:34:05.623Z,1.97
2023-06-06T11:36:52.978Z,1.87
2023-06-06T11:39:38.628Z,2.77
2023-06-06T11:42:25.193Z,1.73
2023-06-06T11:45:18.063Z,2.70
2023-06-06T11:48:18.002Z,2.27
2023-06-06T11:51:16.408Z,2.00
2023-06-06T11:54:21.375Z,2.23
2023-06-06T11:57:10.884Z,2.07
2023-06-06T12:00:07.735Z,2.50
2023-06-06T12:02:54.454Z,2.23
2023-06-06T12:05:42.970Z,2.00
2023-06-06T12:08:29.657Z,2.20
2023-06-06T12:11:25.732Z,2.00
2023-06-06T12:14:12.869Z,2.10
2023-06-06T12:17:09.314Z,2.57
2023-06-06T12:19:55.955Z,1.97
2023-06-06T12:22:42.045Z,1.90
2023-06-06T12:25:29.468Z,2.43
2023-06-06T12:28:16.614Z,2.00
2023-06-06T12:31:18.802Z,1.90
2023-06-06T12:34:04.983Z,2.13
2023-06-06T12:36:54.301Z,1.87
2023-06-06T12:39:41.773Z,1.80
2023-06-06T12:42:27.150Z,1.70
2023-06-06T12:45:13.998Z,1.87
2023-06-06T12:48:00.505Z,2.17
2023-06-06T12:50:46.217Z,2.27
2023-06-06T12:53:31.691Z,1.93
2023-06-06T12:56:19.836Z,2.23
2023-06-06T12:59:08.248Z,1.73
2023-06-06T13:01:56.870Z,2.27
2023-06-06T13:04:43.567Z,2.07
2023-06-06T13:07:31.861Z,2.30
2023-06-06T13:10:20.970Z,2.00
2023-06-06T13:13:06.657Z,2.37
2023-06-06T13:15:57.346Z,2.00
2023-06-06T13:18:43.097Z,1.83
2023-06-06T13:21:28.566Z,2.17
2023-06-06T13:24:15.184Z,2.20
2023-06-06T13:27:02.110Z,2.07
2023-06-06T13:29:47.681Z,2.47
2023-06-06T13:32:36.479Z,1.97
2023-06-06T13:35:21.949Z,2.43
2023-06-06T13:38:07.572Z,1.93
2023-06-06T13:40:53.483Z,2.57
2023-06-06T13:43:39.369Z,2.03
2023-06-06T13:46:26.783Z,2.50
2023-06-06T13:49:17.889Z,2.60
2023-06-06T13:52:03.491Z,2.53
2023-06-06T13:54:49.022Z,2.00
2023-06-06T13:57:41.671Z,2.93
2023-06-06T14:00:28.094Z,2.87
2023-06-06T14:03:14.139Z,2.50
2023-06-06T14:06:00.604Z,2.57
2023-06-06T14:08:46.333Z,2.43
2023-06-06T14:11:32.217Z,2.47
2023-06-06T14:14:18.748Z,2.67
2023-06-06T14:17:04.696Z,2.43
2023-06-06T14:19:55.151Z,2.17
2023-06-06T14:22:41.520Z,2.53
2023-06-06T14:25:29.422Z,2.70
2023-06-06T14:28:15.120Z,2.47
2023-06-06T14:31:04.289Z,2.30
2023-06-06T14:33:50.513Z,2.70
2023-06-06T14:36:36.354Z,2.60
2023-06-06T14:39:22.161Z,2.47
2023-06-06T14:42:08.897Z,2.20
2023-06-06T14:44:56.655Z,2.67
2023-06-06T14:47:42.361Z,2.70
2023-06-06T14:50:28.005Z,2.73
2023-06-06T14:53:18.266Z,2.80
2023-06-06T14:56:09.289Z,2.47
2023-06-06T14:58:54.816Z,2.60
2023-06-06T15:01:40.813Z,2.90
2023-06-06T15:04:26.456Z,3.17
2023-06-06T15:07:14.552Z,2.40
2023-06-06T15:10:00.592Z,3.00
2023-06-06T15:12:48.530Z,2.53
2023-06-06T15:15:36.223Z,2.40
2023-06-06T15:18:22.010Z,2.50
2023-06-06T15:21:10.922Z,2.30
2023-06-06T15:23:58.350Z,3.17
2023-06-06T15:26:45.155Z,2.60
2023-06-06T15:29:38.934Z,3.33
2023-06-06T15:32:26.915Z,2.60
2023-06-06T15:35:12.982Z,2.13
2023-06-06T15:38:03.442Z,2.30
2023-06-06T15:40:49.547Z,2.60
2023-06-06T15:43:37.496Z,2.50
2023-06-06T15:46:24.139Z,2.50
2023-06-06T15:49:12.779Z,2.63
2023-06-06T15:52:01.003Z,2.50
2023-06-06T15:54:46.457Z,2.70
2023-06-06T15:57:32.636Z,2.70
2023-06-06T16:00:18.746Z,2.80
2023-06-06T16:03:06.144Z,2.43
2023-06-06T16:05:51.520Z,2.27
2023-06-06T16:08:37.407Z,2.33
2023-06-06T16:11:23.130Z,2.80
2023-06-06T16:14:08.610Z,2.67
2023-06-06T16:16:54.252Z,2.57
2023-06-06T16:19:40.423Z,2.73
2023-06-06T16:22:28.052Z,2.90
2023-06-06T16:25:13.793Z,2.77
2023-06-06T16:27:58.989Z,2.70
2023-06-06T16:30:44.441Z,2.20
2023-06-06T16:33:30.312Z,2.30
2023-06-06T16:36:18.713Z,2.47
2023-06-06T16:39:08.658Z,2.70
2023-06-06T16:41:54.039Z,2.20
2023-06-06T16:44:39.720Z,2.37
2023-06-06T16:47:25.545Z,2.57
2023-06-06T16:50:11.480Z,2.50
2023-06-06T16:52:57.282Z,2.60
2023-06-06T16:55:42.933Z,3.07
2023-06-06T16:58:28.783Z,2.50
2023-06-06T17:01:14.171Z,2.93
2023-06-06T17:04:00.230Z,2.87
2023-06-06T17:06:46.338Z,3.00
2023-06-06T17:09:32.256Z,2.90
2023-06-06T17:12:17.890Z,2.80
2023-06-06T17:15:03.937Z,2.83
2023-06-06T17:17:49.820Z,2.67
2023-06-06T17:20:35.385Z,2.37
2023-06-06T17:23:21.370Z,2.90
2023-06-06T17:26:09.075Z,2.77
2023-06-06T17:28:54.757Z,3.77
2023-06-06T17:31:42.612Z,2.57
2023-06-06T17:34:28.336Z,2.83
2023-06-06T17:37:13.994Z,2.57
2023-06-06T17:40:00.272Z,2.83
2023-06-06T17:42:50.310Z,2.80
2023-06-06T17:45:35.857Z,2.43
2023-06-06T17:48:23.898Z,3.53
2023-06-06T17:51:09.324Z,3.53
2023-06-06T17:53:59.529Z,3.30
2023-06-06T17:56:44.921Z,3.13
2023-06-06T17:59:30.244Z,3.27
2023-06-06T18:02:15.745Z,3.47
2023-06-06T18:05:02.811Z,2.90
2023-06-06T18:10:39.283Z,3.27
2023-06-06T18:13:25.069Z,2.60
2023-06-06T18:16:12.838Z,3.13
2023-06-06T18:18:59.052Z,3.40
2023-06-06T18:21:45.775Z,4.40
2023-06-06T18:24:31.247Z,4.17
2023-06-06T18:27:17.365Z,3.87
2023-06-06T18:30:06.065Z,3.17
2023-06-06T18:32:51.869Z,4.47
2023-06-06T18:35:40.697Z,4.17
2023-06-06T18:38:25.878Z,3.93
2023-06-06T18:41:13.713Z,3.50
2023-06-06T18:44:00.055Z,2.80
2023-06-06T18:46:45.396Z,3.37
2023-06-06T18:49:31.763Z,3.10
2023-06-06T18:52:16.991Z,3.50
2023-06-06T18:55:06.861Z,3.40
2023-06-06T18:57:52.779Z,3.53
2023-06-06T19:00:38.428Z,3.53
2023-06-06T19:03:23.933Z,3.27
2023-06-06T19:06:09.899Z,2.93
2023-06-06T19:08:58.091Z,3.30
2023-06-06T19:11:43.859Z,3.50
2023-06-06T19:14:32.358Z,3.53
2023-06-06T19:17:17.969Z,3.20
2023-06-06T19:20:04.486Z,2.93
2023-06-06T19:22:53.785Z,3.43
2023-06-06T19:25:42.148Z,3.17
2023-06-06T19:28:27.537Z,2.90
2023-06-06T19:31:13.709Z,3.33
2023-06-06T19:34:02.469Z,2.87
2023-06-06T19:36:48.384Z,2.70
2023-06-06T19:39:34.180Z,3.37
2023-06-06T19:42:22.503Z,3.23
2023-06-06T19:45:08.618Z,2.77
2023-06-06T19:47:59.947Z,2.93
2023-06-06T19:50:46.283Z,3.97
2023-06-06T19:53:32.226Z,3.70
2023-06-06T19:56:18.529Z,2.90
2023-06-06T19:59:04.405Z,3.60
2023-06-06T20:01:50.060Z,2.80
2023-06-06T20:04:35.702Z,3.53
2023-06-06T20:07:24.098Z,3.13
2023-06-06T20:10:12.309Z,3.53
2023-06-06T20:13:01.259Z,4.77
2023-06-06T20:15:50.056Z,3.30
2023-06-06T20:18:35.869Z,4.60
2023-06-06T20:21:23.661Z,3.43
2023-06-06T20:24:08.995Z,3.00
2023-06-06T20:26:58.016Z,3.97
2023-06-06T20:29:44.257Z,3.20
2023-06-06T20:32:32.214Z,3.57
2023-06-06T20:35:17.998Z,3.97
2023-06-06T20:38:03.954Z,3.97
2023-06-06T20:40:52.220Z,3.43
2023-06-06T20:43:38.139Z,4.23
2023-06-06T20:46:26.389Z,4.20
2023-06-06T20:49:12.036Z,4.00
2023-06-06T20:51:57.960Z,4.07
2023-06-06T20:54:43.669Z,4.07
2023-06-06T20:57:30.201Z,3.70
2023-06-06T21:00:16.652Z,4.33
2023-06-06T21:03:03.006Z,3.90
2023-06-06T21:05:49.321Z,3.47
2023-06-06T21:08:34.702Z,3.80
2023-06-06T21:11:22.652Z,4.27
2023-06-06T21:14:08.260Z,3.90
2023-06-06T21:16:54.315Z,3.47
2023-06-06T21:19:40.410Z,3.33
2023-06-06T21:22:26.138Z,4.40
2023-06-06T21:25:14.120Z,3.07
2023-06-06T21:27:59.585Z,3.90
2023-06-06T21:30:46.200Z,3.43
2023-06-06T21:33:31.842Z,3.40
2023-06-06T21:36:17.587Z,3.67
2023-06-06T21:39:03.393Z,3.50
2023-06-06T21:41:49.054Z,3.40
2023-06-06T21:44:35.008Z,4.13
2023-06-06T21:47:21.144Z,3.87
2023-06-06T21:50:12.500Z,3.13
2023-06-06T21:52:58.373Z,4.37
2023-06-06T21:55:44.639Z,4.33
2023-06-06T21:58:30.488Z,4.00
2023-06-06T22:01:16.240Z,3.70
2023-06-06T22:04:04.911Z,3.87
2023-06-06T22:06:50.395Z,3.30
2023-06-06T22:09:36.204Z,3.17
2023-06-06T22:12:21.672Z,3.73
2023-06-06T22:15:07.672Z,3.07
2023-06-06T22:17:56.532Z,3.90
2023-06-06T22:20:42.694Z,3.40
2023-06-06T22:23:29.083Z,3.90
2023-06-06T22:26:15.127Z,3.70
2023-06-06T22:29:00.979Z,4.00
2023-06-06T22:31:50.065Z,3.20
2023-06-06T22:34:38.185Z,3.87
2023-06-06T22:37:25.830Z,3.67
2023-06-06T22:40:12.727Z,3.80
2023-06-06T22:42:59.122Z,3.10
2023-06-06T22:45:44.743Z,2.97
2023-06-06T22:48:34.773Z,3.40
2023-06-06T22:51:19.906Z,2.80
2023-06-06T22:54:07.954Z,3.80
2023-06-06T22:56:54.073Z,3.10
2023-06-06T22:59:42.220Z,3.10
2023-06-06T23:02:27.990Z,2.57
2023-06-06T23:05:13.504Z,3.17
2023-06-06T23:07:59.098Z,3.30
2023-06-06T23:10:44.393Z,2.90
2023-06-06T23:13:30.378Z,3.43
2023-06-06T23:16:15.778Z,3.30
2023-06-06T23:19:01.311Z,2.83
2023-06-06T23:21:47.209Z,3.30
2023-06-06T23:24:32.998Z,3.00
2023-06-06T23:27:18.637Z,2.90
2023-06-06T23:30:07.284Z,3.27
2023-06-06T23:32:53.323Z,2.77
2023-06-06T23:35:39.476Z,2.40
2023-06-06T23:38:25.052Z,2.60
2023-06-06T23:41:10.444Z,2.10
2023-06-06T23:43:58.652Z,3.20
2023-06-06T23:46:46.786Z,2.10
2023-06-06T23:49:32.120Z,2.50
2023-06-06T23:52:17.513Z,2.20
2023-06-06T23:55:03.239Z,2.13
2023-06-06T23:57:49.220Z,2.10
